Anne Sibum — C4YC2 — position and weather

sailwx.info

Track history (hours):
 
Tides and Currents Weather Stations Pressure Air Temp Water Temp Dewpoint Dewpoint Depression Visibility Wind Speed Wind Dir Waves Ship Positions

Anne Sibum

Last reported at 2015-Apr-01 17:27 UTC. Time now 2015-Apr-02 07:56 UTC.
Position N 53°25' W 004°14'.

Length 151 m; draft 6.9 m.

Type: Cargo ship. MMSI: 209322000.

Date/timePositionNaut miles runAvg speedWind from/ knotsBaromVisibWave heightAir tempDewpointWater temp
2015-Apr-01 17:27N 53°25' W 004°14'910.6
2015-Apr-01 16:33N 53°27' W 003°58'1413.9
2015-Apr-01 15:34N 53°33' W 003°37'1414.5
2015-Apr-01 14:34N 53°31' W 003°13'8 8.4
2015-Apr-01 13:33N 53°27' W 003°01'1 0.6
2015-Apr-01 12:33N 53°28' W 003°01'0 0.1
2015-Apr-01 11:33N 53°28' W 003°02'0 0.0
2015-Apr-01 10:33N 53°28' W 003°02'0 0.0
2015-Apr-01 09:33N 53°28' W 003°02'0 0.0
2015-Apr-01 08:32N 53°28' W 003°02'0 0.0
2015-Apr-01 07:32N 53°28' W 003°02'0 0.0
2015-Apr-01 06:31N 53°28' W 003°02'0 0.0
2015-Apr-01 05:28N 53°28' W 003°02'0 0.0
2015-Apr-01 04:33N 53°28' W 003°02'0 0.0
2015-Apr-01 03:33N 53°28' W 003°02'0 0.0
2015-Apr-01 02:33N 53°28' W 003°02'0 0.0
2015-Apr-01 01:29N 53°28' W 003°02'0 0.0
2015-Apr-01 00:32N 53°28' W 003°02'0 0.0
2015-Mar-31 23:31N 53°28' W 003°02'0 0.0
2015-Mar-31 22:31N 53°28' W 003°02'0 0.0
2015-Mar-31 21:33N 53°28' W 003°02'0 0.0
2015-Mar-31 20:33N 53°28' W 003°02'0 0.0
2015-Mar-31 19:33N 53°28' W 003°02'0 0.0
2015-Mar-31 18:32N 53°28' W 003°02'0 0.0
2015-Mar-31 17:32N 53°28' W 003°02'0 0.0
2015-Mar-31 16:31N 53°28' W 003°02'0 0.0
2015-Mar-31 15:31N 53°28' W 003°02'0 0.0
2015-Mar-31 14:33N 53°28' W 003°02'0 0.0
2015-Mar-31 13:30N 53°28' W 003°02'0 0.0
2015-Mar-31 12:33N 53°28' W 003°02'0 0.0
2015-Mar-31 11:32N 53°28' W 003°02'0 0.0
2015-Mar-31 10:32N 53°28' W 003°02'0 0.0
2015-Mar-31 09:31N 53°28' W 003°02'0 0.0
2015-Mar-31 08:31N 53°28' W 003°02'0 0.0
2015-Mar-31 07:33N 53°28' W 003°02'0 0.0
2015-Mar-31 06:33N 53°28' W 003°02'0 0.0
2015-Mar-31 05:32N 53°28' W 003°02'0 0.0
2015-Mar-31 04:32N 53°28' W 003°02'0 0.0
2015-Mar-31 03:29N 53°28' W 003°02'0 0.0
2015-Mar-31 02:31N 53°28' W 003°02'0 0.0
2015-Mar-31 01:31N 53°28' W 003°02'0 0.0
2015-Mar-31 00:30N 53°28' W 003°02'0 0.0
2015-Mar-30 23:30N 53°28' W 003°02'0 0.0
2015-Mar-30 22:32N 53°28' W 003°02'0 0.0
2015-Mar-30 21:32N 53°28' W 003°02'0 0.0
2015-Mar-30 20:32N 53°28' W 003°02'0 0.0
2015-Mar-30 19:31N 53°28' W 003°02'0 0.0
2015-Mar-30 18:31N 53°28' W 003°02'0 0.0
2015-Mar-30 17:33N 53°28' W 003°02'1 0.6
2015-Mar-30 16:34N 53°27' W 003°01'0 0.5
2015-Mar-30 15:34N 53°27' W 003°02'7 7.4
2015-Mar-30 14:33N 53°32' W 003°11'1111.6
2015-Mar-30 13:33N 53°31' W 003°31'1414.5
2015-Mar-30 12:33N 53°29' W 003°55'1313.0
2015-Mar-30 11:33N 53°26' W 004°16'5 5.3
2015-Mar-30 10:33N 53°24' W 004°08'2 2.0
2015-Mar-30 09:33N 53°23' W 004°05'0 0.0
2015-Mar-30 08:33N 53°23' W 004°05'0 0.0
2015-Mar-30 07:33N 53°23' W 004°05'0 0.0
2015-Mar-30 06:31N 53°23' W 004°05'0 0.0
2015-Mar-30 05:33N 53°23' W 004°05'  
2015-Mar-27 15:32N 50°06' W 003°39'1414.2
2015-Mar-27 14:33N 50°09' W 003°18'1413.4
2015-Mar-27 13:33N 50°11' W 002°57'1413.1
2015-Mar-27 12:31N 50°14' W 002°36'1813.2
2015-Mar-27 11:07N 50°17' W 002°08'3814.8
2015-Mar-27 08:31N 50°24' W 001°09'1616.4
2015-Mar-27 07:33N 50°27' W 000°44'3315.6
2015-Mar-27 05:25N 50°34' E 000°07'1214.5
2015-Mar-27 04:33N 50°37' E 000°26'1413.6
2015-Mar-27 03:33N 50°44' E 000°45'1313.3
2015-Mar-27 02:33N 50°51' E 001°02'1414.0
2015-Mar-27 01:33N 51°00' E 001°19'1615.8
2015-Mar-27 00:33N 51°10' E 001°39'1615.8
2015-Mar-26 23:33N 51°22' E 001°55'1514.7
2015-Mar-26 22:33N 51°34' E 002°09'6612.2
2015-Mar-26 17:07N 52°03' E 003°46'712.6
2015-Mar-26 16:33N 52°02' E 003°57'6 5.1
2015-Mar-26 15:23N 51°58' E 004°03'0 0.0
2015-Mar-26 14:26N 51°58' E 004°03'0 0.0
2015-Mar-26 13:32N 51°58' E 004°03'0 0.0
2015-Mar-26 12:28N 51°58' E 004°03'0 0.0
2015-Mar-26 11:31N 51°58' E 004°03'0 0.0
2015-Mar-26 10:33N 51°58' E 004°03'0 0.0
2015-Mar-26 09:30N 51°58' E 004°03'0 0.0
2015-Mar-26 08:32N 51°58' E 004°03'0 0.0
2015-Mar-26 07:32N 51°58' E 004°03'0 0.0
2015-Mar-26 06:29N 51°58' E 004°03'0 0.0
2015-Mar-26 05:28N 51°58' E 004°03'0 0.0
2015-Mar-26 04:31N 51°58' E 004°03'0 0.0
2015-Mar-26 03:30N 51°58' E 004°03'0 0.0
2015-Mar-26 02:33N 51°58' E 004°03'0 0.3
2015-Mar-26 01:31N 51°58' E 004°03'0 0.0
2015-Mar-26 00:33N 51°58' E 004°03'0 0.0
2015-Mar-25 23:30N 51°58' E 004°03'0 0.0
2015-Mar-25 22:33N 51°58' E 004°03'0 0.0
2015-Mar-25 21:32N 51°58' E 004°03'0 0.0
2015-Mar-25 20:29N 51°58' E 004°03'0 0.0
2015-Mar-25 19:28N 51°58' E 004°03'0 0.0
2015-Mar-25 18:28N 51°58' E 004°03'0 0.0
2015-Mar-25 17:27N 51°58' E 004°03'0 0.0
2015-Mar-25 16:33N 51°58' E 004°03'0 0.0
2015-Mar-25 15:33N 51°58' E 004°03'0 0.0
2015-Mar-25 14:29N 51°58' E 004°03'0 0.3
2015-Mar-25 13:32N 51°58' E 004°04'1 0.8
2015-Mar-25 12:30N 51°57' E 004°04'0 0.0
2015-Mar-25 11:32N 51°57' E 004°04'0 0.0
2015-Mar-25 10:32N 51°57' E 004°04'0 0.0
2015-Mar-25 09:31N 51°57' E 004°04'0 0.0
2015-Mar-25 08:31N 51°57' E 004°04'0 0.0
2015-Mar-25 07:28N 51°57' E 004°04'0 0.0
2015-Mar-25 06:30N 51°57' E 004°04'0 0.0
2015-Mar-25 05:33N 51°57' E 004°04'1 0.9
2015-Mar-25 04:28N 51°58' E 004°03'0 0.0
2015-Mar-25 03:33N 51°58' E 004°03'0 0.0
2015-Mar-25 02:33N 51°58' E 004°03'1 0.7
2015-Mar-25 01:33N 51°58' E 004°03'0 0.0
2015-Mar-25 00:33N 51°58' E 004°03'0 0.0
2015-Mar-24 23:32N 51°58' E 004°03'0 0.0
2015-Mar-24 22:29N 51°58' E 004°03'0 0.0
2015-Mar-24 21:31N 51°58' E 004°03'0 0.1
2015-Mar-24 20:31N 51°58' E 004°02'5 5.3
2015-Mar-24 19:34N 51°57' E 004°10'10 9.9
2015-Mar-24 18:33N 51°54' E 004°26'1 0.7
2015-Mar-24 17:32N 51°53' E 004°26'0 0.0
2015-Mar-24 16:31N 51°53' E 004°26'0 0.0
2015-Mar-24 15:31N 51°53' E 004°26'0 0.0
2015-Mar-24 14:31N 51°53' E 004°26'0 0.4
2015-Mar-24 13:30N 51°54' E 004°26'0 0.0
2015-Mar-24 12:23N 51°54' E 004°26'0 0.0
2015-Mar-24 11:23N 51°54' E 004°26'0 0.0
2015-Mar-24 10:25N 51°54' E 004°26'1 1.4
2015-Mar-24 09:29N 51°53' E 004°25'0 0.0
2015-Mar-24 08:32N 51°53' E 004°25'0 0.0
2015-Mar-24 07:31N 51°53' E 004°25'0 0.0
2015-Mar-24 06:28N 51°53' E 004°25'0 0.0
2015-Mar-24 05:33N 51°53' E 004°25'0 0.0
2015-Mar-24 04:33N 51°53' E 004°25'0 0.0
2015-Mar-24 03:32N 51°53' E 004°25'0 0.0
2015-Mar-24 02:32N 51°53' E 004°25'0 0.0
2015-Mar-24 01:32N 51°53' E 004°25'0 0.0
2015-Mar-24 00:31N 51°53' E 004°25'0 0.0
2015-Mar-23 23:31N 51°53' E 004°25'0 0.0
2015-Mar-23 22:33N 51°53' E 004°25'0 0.0
2015-Mar-23 21:30N 51°53' E 004°25'0 0.0
2015-Mar-23 20:32N 51°53' E 004°25'1 0.6
2015-Mar-23 19:33N 51°53' E 004°24'9 9.3
2015-Mar-23 18:34N 51°57' E 004°11'1514.1
2015-Mar-23 17:32N 51°60' E 003°47'1413.5
2015-Mar-23 16:29N 51°55' E 003°26'4414.9
2015-Mar-23 13:33N 51°35' E 002°23'1616.2
2015-Mar-23 12:33N 51°23' E 002°06'1515.3
2015-Mar-23 11:33N 51°12' E 001°48'1413.8
2015-Mar-23 10:33N 51°01' E 001°35'17413.1
2015-Mar-22 21:21N 50°09' W 002°46'  
Track history (hours):
 
Tides and Currents Weather Stations Pressure Air Temp Water Temp Dewpoint Dewpoint Depression Visibility Wind Speed Wind Dir Waves Ship Positions

Anne Sibum

Last reported at 2015-Apr-01 17:27 UTC. Time now 2015-Apr-02 07:56 UTC.
Position N 53°25' W 004°14'.

Length 151 m; draft 6.9 m.

Type: Cargo ship. MMSI: 209322000.

Date/timePositionNaut miles runAvg speedWind from/ knotsBaromVisibWave heightAir tempDewpointWater temp
2015-Apr-01 17:27N 53°25' W 004°14'910.6
2015-Apr-01 16:33N 53°27' W 003°58'1413.9
2015-Apr-01 15:34N 53°33' W 003°37'1414.5
2015-Apr-01 14:34N 53°31' W 003°13'8 8.4
2015-Apr-01 13:33N 53°27' W 003°01'1 0.6
2015-Apr-01 12:33N 53°28' W 003°01'0 0.1
2015-Apr-01 11:33N 53°28' W 003°02'0 0.0
2015-Apr-01 10:33N 53°28' W 003°02'0 0.0
2015-Apr-01 09:33N 53°28' W 003°02'0 0.0
2015-Apr-01 08:32N 53°28' W 003°02'0 0.0
2015-Apr-01 07:32N 53°28' W 003°02'0 0.0
2015-Apr-01 06:31N 53°28' W 003°02'0 0.0
2015-Apr-01 05:28N 53°28' W 003°02'0 0.0
2015-Apr-01 04:33N 53°28' W 003°02'0 0.0
2015-Apr-01 03:33N 53°28' W 003°02'0 0.0
2015-Apr-01 02:33N 53°28' W 003°02'0 0.0
2015-Apr-01 01:29N 53°28' W 003°02'0 0.0
2015-Apr-01 00:32N 53°28' W 003°02'0 0.0
2015-Mar-31 23:31N 53°28' W 003°02'0 0.0
2015-Mar-31 22:31N 53°28' W 003°02'0 0.0
2015-Mar-31 21:33N 53°28' W 003°02'0 0.0
2015-Mar-31 20:33N 53°28' W 003°02'0 0.0
2015-Mar-31 19:33N 53°28' W 003°02'0 0.0
2015-Mar-31 18:32N 53°28' W 003°02'0 0.0
2015-Mar-31 17:32N 53°28' W 003°02'0 0.0
2015-Mar-31 16:31N 53°28' W 003°02'0 0.0
2015-Mar-31 15:31N 53°28' W 003°02'0 0.0
2015-Mar-31 14:33N 53°28' W 003°02'0 0.0
2015-Mar-31 13:30N 53°28' W 003°02'0 0.0
2015-Mar-31 12:33N 53°28' W 003°02'0 0.0
2015-Mar-31 11:32N 53°28' W 003°02'0 0.0
2015-Mar-31 10:32N 53°28' W 003°02'0 0.0
2015-Mar-31 09:31N 53°28' W 003°02'0 0.0
2015-Mar-31 08:31N 53°28' W 003°02'0 0.0
2015-Mar-31 07:33N 53°28' W 003°02'0 0.0
2015-Mar-31 06:33N 53°28' W 003°02'0 0.0
2015-Mar-31 05:32N 53°28' W 003°02'0 0.0
2015-Mar-31 04:32N 53°28' W 003°02'0 0.0
2015-Mar-31 03:29N 53°28' W 003°02'0 0.0
2015-Mar-31 02:31N 53°28' W 003°02'0 0.0
2015-Mar-31 01:31N 53°28' W 003°02'0 0.0
2015-Mar-31 00:30N 53°28' W 003°02'0 0.0
2015-Mar-30 23:30N 53°28' W 003°02'0 0.0
2015-Mar-30 22:32N 53°28' W 003°02'0 0.0
2015-Mar-30 21:32N 53°28' W 003°02'0 0.0
2015-Mar-30 20:32N 53°28' W 003°02'0 0.0
2015-Mar-30 19:31N 53°28' W 003°02'0 0.0
2015-Mar-30 18:31N 53°28' W 003°02'0 0.0
2015-Mar-30 17:33N 53°28' W 003°02'1 0.6
2015-Mar-30 16:34N 53°27' W 003°01'0 0.5
2015-Mar-30 15:34N 53°27' W 003°02'7 7.4
2015-Mar-30 14:33N 53°32' W 003°11'1111.6
2015-Mar-30 13:33N 53°31' W 003°31'1414.5
2015-Mar-30 12:33N 53°29' W 003°55'1313.0
2015-Mar-30 11:33N 53°26' W 004°16'5 5.3
2015-Mar-30 10:33N 53°24' W 004°08'2 2.0
2015-Mar-30 09:33N 53°23' W 004°05'0 0.0
2015-Mar-30 08:33N 53°23' W 004°05'0 0.0
2015-Mar-30 07:33N 53°23' W 004°05'0 0.0
2015-Mar-30 06:31N 53°23' W 004°05'0 0.0
2015-Mar-30 05:33N 53°23' W 004°05'  
2015-Mar-27 15:32N 50°06' W 003°39'1414.2
2015-Mar-27 14:33N 50°09' W 003°18'1413.4
2015-Mar-27 13:33N 50°11' W 002°57'1413.1
2015-Mar-27 12:31N 50°14' W 002°36'1813.2
2015-Mar-27 11:07N 50°17' W 002°08'3814.8
2015-Mar-27 08:31N 50°24' W 001°09'1616.4
2015-Mar-27 07:33N 50°27' W 000°44'3315.6
2015-Mar-27 05:25N 50°34' E 000°07'1214.5
2015-Mar-27 04:33N 50°37' E 000°26'1413.6
2015-Mar-27 03:33N 50°44' E 000°45'1313.3
2015-Mar-27 02:33N 50°51' E 001°02'1414.0
2015-Mar-27 01:33N 51°00' E 001°19'1615.8
2015-Mar-27 00:33N 51°10' E 001°39'1615.8
2015-Mar-26 23:33N 51°22' E 001°55'1514.7
2015-Mar-26 22:33N 51°34' E 002°09'6612.2
2015-Mar-26 17:07N 52°03' E 003°46'712.6
2015-Mar-26 16:33N 52°02' E 003°57'6 5.1
2015-Mar-26 15:23N 51°58' E 004°03'0 0.0
2015-Mar-26 14:26N 51°58' E 004°03'0 0.0
2015-Mar-26 13:32N 51°58' E 004°03'0 0.0
2015-Mar-26 12:28N 51°58' E 004°03'0 0.0
2015-Mar-26 11:31N 51°58' E 004°03'0 0.0
2015-Mar-26 10:33N 51°58' E 004°03'0 0.0
2015-Mar-26 09:30N 51°58' E 004°03'0 0.0
2015-Mar-26 08:32N 51°58' E 004°03'0 0.0
2015-Mar-26 07:32N 51°58' E 004°03'0 0.0
2015-Mar-26 06:29N 51°58' E 004°03'0 0.0
2015-Mar-26 05:28N 51°58' E 004°03'0 0.0
2015-Mar-26 04:31N 51°58' E 004°03'0 0.0
2015-Mar-26 03:30N 51°58' E 004°03'0 0.0
2015-Mar-26 02:33N 51°58' E 004°03'0 0.3
2015-Mar-26 01:31N 51°58' E 004°03'0 0.0
2015-Mar-26 00:33N 51°58' E 004°03'0 0.0
2015-Mar-25 23:30N 51°58' E 004°03'0 0.0
2015-Mar-25 22:33N 51°58' E 004°03'0 0.0
2015-Mar-25 21:32N 51°58' E 004°03'0 0.0
2015-Mar-25 20:29N 51°58' E 004°03'0 0.0
2015-Mar-25 19:28N 51°58' E 004°03'0 0.0
2015-Mar-25 18:28N 51°58' E 004°03'0 0.0
2015-Mar-25 17:27N 51°58' E 004°03'0 0.0
2015-Mar-25 16:33N 51°58' E 004°03'0 0.0
2015-Mar-25 15:33N 51°58' E 004°03'0 0.0
2015-Mar-25 14:29N 51°58' E 004°03'0 0.3
2015-Mar-25 13:32N 51°58' E 004°04'1 0.8
2015-Mar-25 12:30N 51°57' E 004°04'0 0.0
2015-Mar-25 11:32N 51°57' E 004°04'0 0.0
2015-Mar-25 10:32N 51°57' E 004°04'0 0.0
2015-Mar-25 09:31N 51°57' E 004°04'0 0.0
2015-Mar-25 08:31N 51°57' E 004°04'0 0.0
2015-Mar-25 07:28N 51°57' E 004°04'0 0.0
2015-Mar-25 06:30N 51°57' E 004°04'0 0.0
2015-Mar-25 05:33N 51°57' E 004°04'1 0.9
2015-Mar-25 04:28N 51°58' E 004°03'0 0.0
2015-Mar-25 03:33N 51°58' E 004°03'0 0.0
2015-Mar-25 02:33N 51°58' E 004°03'1 0.7
2015-Mar-25 01:33N 51°58' E 004°03'0 0.0
2015-Mar-25 00:33N 51°58' E 004°03'0 0.0
2015-Mar-24 23:32N 51°58' E 004°03'0 0.0
2015-Mar-24 22:29N 51°58' E 004°03'0 0.0
2015-Mar-24 21:31N 51°58' E 004°03'0 0.1
2015-Mar-24 20:31N 51°58' E 004°02'5 5.3
2015-Mar-24 19:34N 51°57' E 004°10'10 9.9
2015-Mar-24 18:33N 51°54' E 004°26'1 0.7
2015-Mar-24 17:32N 51°53' E 004°26'0 0.0
2015-Mar-24 16:31N 51°53' E 004°26'0 0.0
2015-Mar-24 15:31N 51°53' E 004°26'0 0.0
2015-Mar-24 14:31N 51°53' E 004°26'0 0.4
2015-Mar-24 13:30N 51°54' E 004°26'0 0.0
2015-Mar-24 12:23N 51°54' E 004°26'0 0.0
2015-Mar-24 11:23N 51°54' E 004°26'0 0.0
2015-Mar-24 10:25N 51°54' E 004°26'1 1.4
2015-Mar-24 09:29N 51°53' E 004°25'0 0.0
2015-Mar-24 08:32N 51°53' E 004°25'0 0.0
2015-Mar-24 07:31N 51°53' E 004°25'0 0.0
2015-Mar-24 06:28N 51°53' E 004°25'0 0.0
2015-Mar-24 05:33N 51°53' E 004°25'0 0.0
2015-Mar-24 04:33N 51°53' E 004°25'0 0.0
2015-Mar-24 03:32N 51°53' E 004°25'0 0.0
2015-Mar-24 02:32N 51°53' E 004°25'0 0.0
2015-Mar-24 01:32N 51°53' E 004°25'0 0.0
2015-Mar-24 00:31N 51°53' E 004°25'0 0.0
2015-Mar-23 23:31N 51°53' E 004°25'0 0.0
2015-Mar-23 22:33N 51°53' E 004°25'0 0.0
2015-Mar-23 21:30N 51°53' E 004°25'0 0.0
2015-Mar-23 20:32N 51°53' E 004°25'1 0.6
2015-Mar-23 19:33N 51°53' E 004°24'9 9.3
2015-Mar-23 18:34N 51°57' E 004°11'1514.1
2015-Mar-23 17:32N 51°60' E 003°47'1413.5
2015-Mar-23 16:29N 51°55' E 003°26'4414.9
2015-Mar-23 13:33N 51°35' E 002°23'1616.2
2015-Mar-23 12:33N 51°23' E 002°06'1515.3
2015-Mar-23 11:33N 51°12' E 001°48'1413.8
2015-Mar-23 10:33N 51°01' E 001°35'17413.1
2015-Mar-22 21:21N 50°09' W 002°46'  

Dump ship's entire track history